Decoded Metar for PAIL (ILIAMNA in AK, USA) (IATA:ILI) | Meteo·Mobile Aviation Weather
aviador You're here:

PAIL Decoded Metar

ILIAMNA in AK, USA
Report Time2018-10-20 17:53:00
UTC Time2018-10-20 18:04:14
Flight Rules mvfr MVFR
Wind010° at 07 kt
W.Decomp.*RWY 35: 7.0 kt HW 0.4 kt RCW
RWY 07: 1.6 kt HW 6.8 kt LCW
W.Rank010° ranks 4
Current wind is above 010° avg. (6.7)
Visibility9999 m
Phenomena:N/A
Clouds:Broken 015 Hf
Broken 020 Hf
Overcast 033 Hf
Expected CloudBase > 1,200 ft AGL from Temp-Dew spread
Ceiling1,500 ft
Temp03°C (ISA -12)
Dew Point00°C (81% RH)
AAT-1.5°C
QNH1000 hPa
Density Alt-728 ft
Elevation161 ft
Report Wrong Elevation
Raw Report
PAIL 201753Z 01007KT 10SM BKN015 BKN020 OVC033 03/00 A2953 RMK AO2
SLP002 T00330000 10039 20011 50004=

Extra information for PAIL:More info

Metar Taf Metar & Taf Last 4 Metars F.Rules Stats Wind Profile Meteogram Temp Stats Airport Information Weather charts Add Link Nearby VenuesMetar ALERT Operation Metar Decoded Social comments

AIRNAV info for PAIL